createdAt,value
2019-03-25T00:02:28.764Z,-21447.95
2019-03-25T00:04:57.072Z,-21435.46
2019-03-25T00:07:25.402Z,-21467.59
2019-03-25T00:09:53.660Z,-21487.90
2019-03-25T00:12:21.927Z,-21476.13
2019-03-25T00:14:50.203Z,-21460.44
2019-03-25T00:17:18.469Z,-21466.18
2019-03-25T00:19:46.796Z,-21476.55
2019-03-25T00:22:15.065Z,-21498.11
2019-03-25T00:24:43.347Z,-21509.87
2019-03-25T00:27:11.605Z,-21431.25
2019-03-25T00:29:40.723Z,-21433.92
2019-03-25T00:32:09.177Z,-21453.00
2019-03-25T00:34:37.483Z,-21499.09
2019-03-25T00:37:07.522Z,-21476.97
2019-03-25T00:39:35.805Z,-21413.69
2019-03-25T00:42:04.117Z,-21425.64
2019-03-25T00:44:33.247Z,-21474.03
2019-03-25T00:47:01.535Z,-21452.02
2019-03-25T00:49:29.777Z,-21463.10
2019-03-25T00:51:58.039Z,-21475.57
2019-03-25T00:54:26.335Z,-21441.92
2019-03-25T00:56:54.597Z,-21474.03
2019-03-25T00:59:22.902Z,-21493.22
2019-03-25T01:01:51.129Z,-21475.15
2019-03-25T01:04:19.425Z,-21485.80
2019-03-25T01:06:47.702Z,-21416.64
2019-03-25T01:09:15.972Z,-21423.95
2019-03-25T01:11:49.024Z,-21426.34
2019-03-25T01:14:14.248Z,-21466.32
2019-03-25T01:16:42.581Z,-21475.29
2019-03-25T01:19:10.847Z,-21482.71
2019-03-25T01:21:39.103Z,-21444.73
2019-03-25T01:24:07.649Z,-21435.46
2019-03-25T01:26:35.928Z,-21424.09
2019-03-25T01:29:04.225Z,-21395.70
2019-03-25T01:31:32.475Z,-21419.88
2019-03-25T01:34:00.820Z,-21441.50
2019-03-25T01:36:29.136Z,-21421.28
2019-03-25T01:38:57.392Z,-21447.82
2019-03-25T01:41:25.666Z,-21466.04
2019-03-25T01:43:54.026Z,-21461.13
2019-03-25T01:46:22.321Z,-21448.80
2019-03-25T01:48:50.591Z,-21446.27
2019-03-25T01:51:18.928Z,-21423.81
2019-03-25T01:53:47.201Z,-21414.39
2019-03-25T01:56:15.447Z,-21410.04
2019-03-25T01:58:43.725Z,-21416.08
2019-03-25T02:01:12.466Z,-21411.30
2019-03-25T02:03:40.716Z,-21387.54
2019-03-25T02:06:08.996Z,-21386.27
2019-03-25T02:08:37.247Z,-21394.29
2019-03-25T02:11:05.581Z,-21386.98
2019-03-25T02:13:33.847Z,-21384.02
2019-03-25T02:16:02.132Z,-21363.18
2019-03-25T02:18:30.426Z,-21396.12
2019-03-25T02:20:58.766Z,-21394.29
2019-03-25T02:23:27.016Z,-21352.33
2019-03-25T02:25:55.310Z,-21358.11
2019-03-25T02:28:23.604Z,-21392.74
2019-03-25T02:30:51.869Z,-21376.28
2019-03-25T02:33:21.681Z,-21372.06
2019-03-25T02:35:49.960Z,-21385.43
2019-03-25T02:38:18.329Z,-21370.08
2019-03-25T02:40:46.613Z,-21358.54
2019-03-25T02:43:15.970Z,-21382.05
2019-03-25T02:45:44.268Z,-21366.28
2019-03-25T02:48:12.519Z,-21365.30
2019-03-25T02:50:40.808Z,-21375.86
2019-03-25T02:53:09.139Z,-21377.27
2019-03-25T02:55:42.134Z,-21355.71
2019-03-25T02:58:07.475Z,-21339.64
2019-03-25T03:00:37.179Z,-21359.38
2019-03-25T03:03:06.594Z,-21374.31
2019-03-25T03:05:35.490Z,-21366.56
2019-03-25T03:08:03.912Z,-21392.46
2019-03-25T03:10:32.175Z,-21412.57
2019-03-25T03:13:00.468Z,-21337.67
2019-03-25T03:15:28.743Z,-21362.06
2019-03-25T03:17:57.051Z,-21363.32
2019-03-25T03:20:25.320Z,-21375.15
2019-03-25T03:22:53.575Z,-21368.11
2019-03-25T03:25:22.071Z,-21368.53
2019-03-25T03:27:51.129Z,-21338.37
2019-03-25T03:30:19.378Z,-21359.24
2019-03-25T03:32:47.654Z,-21354.17
2019-03-25T03:35:15.998Z,-21373.75
2019-03-25T03:37:44.251Z,-21368.53
2019-03-25T03:40:12.513Z,-21340.35
2019-03-25T03:42:40.872Z,-21310.57
2019-03-25T03:45:09.323Z,-21315.23
2019-03-25T03:47:37.588Z,-21330.76
2019-03-25T03:50:13.895Z,-21317.92
2019-03-25T03:52:41.108Z,-21331.05
2019-03-25T03:55:09.438Z,-21339.08
2019-03-25T03:57:37.772Z,-21349.52
2019-03-25T04:00:07.344Z,-21345.00
2019-03-25T04:02:35.611Z,-21326.95
2019-03-25T04:05:04.211Z,-21376.42
2019-03-25T04:07:32.461Z,-21330.62
2019-03-25T04:10:00.753Z,-21348.25
2019-03-25T04:12:29.095Z,-21345.29
2019-03-25T04:14:57.437Z,-21339.08
2019-03-25T04:17:27.203Z,-21349.80
2019-03-25T04:19:55.439Z,-21348.53
2019-03-25T04:22:23.716Z,-21312.55
2019-03-25T04:24:52.018Z,-21334.99
2019-03-25T04:27:24.332Z,-21320.32
2019-03-25T04:29:51.944Z,-21350.64
2019-03-25T04:32:20.201Z,-21340.35
2019-03-25T04:34:48.473Z,-21350.64
2019-03-25T04:37:16.740Z,-21321.88
2019-03-25T04:39:45.027Z,-21357.41
2019-03-25T04:42:13.310Z,-21356.42
2019-03-25T04:44:41.581Z,-21319.19
2019-03-25T04:47:09.829Z,-21339.64
2019-03-25T04:49:38.150Z,-21299.99
2019-03-25T04:52:08.000Z,-21315.23
2019-03-25T04:54:36.296Z,-21310.30
2019-03-25T04:57:04.533Z,-21341.48
2019-03-25T04:59:32.797Z,-21341.48
2019-03-25T05:02:01.086Z,-21390.49
2019-03-25T05:04:29.416Z,-21351.77
2019-03-25T05:06:57.685Z,-21360.23
2019-03-25T05:09:25.947Z,-21346.70
2019-03-25T05:11:54.201Z,-21312.41
2019-03-25T05:14:22.466Z,-21308.60
2019-03-25T05:16:50.725Z,-21332.17
2019-03-25T05:19:18.980Z,-21319.05
2019-03-25T05:21:47.317Z,-21360.79
2019-03-25T05:24:16.421Z,-21383.60
2019-03-25T05:26:51.026Z,-21306.05
2019-03-25T05:29:14.703Z,-21328.93
2019-03-25T05:31:43.019Z,-21363.04
2019-03-25T05:34:11.366Z,-21381.07
2019-03-25T05:36:39.591Z,-21323.00
2019-03-25T05:39:08.899Z,-21330.76
2019-03-25T05:41:37.222Z,-21352.62
2019-03-25T05:44:05.501Z,-21321.59
2019-03-25T05:46:34.309Z,-21330.90
2019-03-25T05:49:02.659Z,-21294.48
2019-03-25T05:51:30.879Z,-21346.98
2019-03-25T05:53:59.163Z,-21319.05
2019-03-25T05:56:27.445Z,-21342.75
2019-03-25T05:58:55.697Z,-21312.27
2019-03-25T06:01:24.342Z,-21329.77
2019-03-25T06:03:52.720Z,-21321.88
2019-03-25T06:06:20.998Z,-21341.34
2019-03-25T06:08:49.244Z,-21304.79
2019-03-25T06:11:17.521Z,-21328.08
2019-03-25T06:13:45.867Z,-21329.49
2019-03-25T06:16:14.147Z,-21318.49
2019-03-25T06:18:42.411Z,-21326.53
2019-03-25T06:21:10.698Z,-21325.26
2019-03-25T06:23:41.630Z,-21310.43
2019-03-25T06:26:09.909Z,-21344.58
2019-03-25T06:28:38.219Z,-21336.54
2019-03-25T06:31:06.799Z,-21324.98
2019-03-25T06:33:35.154Z,-21335.41
2019-03-25T06:36:03.378Z,-21332.03
2019-03-25T06:38:31.634Z,-21373.75
2019-03-25T06:41:02.165Z,-21324.41
2019-03-25T06:43:30.423Z,-21327.52
2019-03-25T06:45:59.568Z,-21352.90
2019-03-25T06:48:27.834Z,-21361.07
2019-03-25T06:50:56.110Z,-21364.45
2019-03-25T06:53:24.399Z,-21340.63
2019-03-25T06:55:52.668Z,-21338.94
2019-03-25T06:58:20.990Z,-21366.42
2019-03-25T07:00:49.250Z,-21355.58
2019-03-25T07:03:17.541Z,-21334.85
2019-03-25T07:05:46.652Z,-21369.66
2019-03-25T07:08:14.957Z,-21354.59
2019-03-25T07:10:43.292Z,-21373.33
2019-03-25T07:13:11.697Z,-21399.78
2019-03-25T07:15:39.961Z,-21385.29
2019-03-25T07:18:08.233Z,-21393.02
2019-03-25T07:20:36.613Z,-21380.78
2019-03-25T07:23:04.968Z,-21378.25
2019-03-25T07:25:33.257Z,-21355.15
2019-03-25T07:28:01.506Z,-21359.38
2019-03-25T07:30:29.785Z,-21349.80
2019-03-25T07:32:58.063Z,-21345.71
2019-03-25T07:35:27.054Z,-21370.64
2019-03-25T07:37:55.332Z,-21357.55
2019-03-25T07:40:23.626Z,-21349.23
2019-03-25T07:42:51.915Z,-21385.43
2019-03-25T07:45:20.170Z,-21367.97
2019-03-25T07:47:48.510Z,-21364.87
2019-03-25T07:50:16.863Z,-21364.02
2019-03-25T07:52:46.872Z,-21403.71
2019-03-25T07:55:15.131Z,-21420.44
2019-03-25T07:57:48.351Z,-21457.35
2019-03-25T08:00:16.653Z,-21390.91
2019-03-25T08:02:45.181Z,-21389.36
2019-03-25T08:05:13.509Z,-21394.43
2019-03-25T08:07:41.852Z,-21377.97
2019-03-25T08:10:10.617Z,-21472.63
2019-03-25T08:12:38.849Z,-21473.33
2019-03-25T08:15:07.893Z,-21401.75
2019-03-25T08:17:36.136Z,-21404.28
2019-03-25T08:20:06.586Z,-21436.16
2019-03-25T08:22:34.927Z,-21431.95
2019-03-25T08:25:03.754Z,-21399.78
2019-03-25T08:27:32.018Z,-21412.85
2019-03-25T08:30:00.381Z,-21399.36
2019-03-25T08:32:28.590Z,-21399.21
2019-03-25T08:34:56.853Z,-21420.44
2019-03-25T08:37:25.129Z,-21408.63
2019-03-25T08:39:53.384Z,-21403.16
2019-03-25T08:42:21.687Z,-21423.53
2019-03-25T08:44:49.975Z,-21409.19
2019-03-25T08:47:18.314Z,-21395.27
2019-03-25T08:49:46.654Z,-21416.36
2019-03-25T08:52:14.916Z,-21418.61
2019-03-25T08:54:43.185Z,-21418.32
2019-03-25T08:57:11.461Z,-21400.90
2019-03-25T08:59:39.758Z,-21426.76
2019-03-25T09:02:08.032Z,-21415.52
2019-03-25T09:04:36.303Z,-21388.66
2019-03-25T09:07:04.555Z,-21406.25
2019-03-25T09:09:32.835Z,-21424.23
2019-03-25T09:12:01.104Z,-21434.20
2019-03-25T09:14:29.353Z,-21469.83
2019-03-25T09:17:00.466Z,-21418.32
2019-03-25T09:19:27.694Z,-21445.43
2019-03-25T09:21:56.026Z,-21427.60
2019-03-25T09:24:24.295Z,-21463.23
2019-03-25T09:26:52.573Z,-21429.14
2019-03-25T09:29:20.897Z,-21470.67
2019-03-25T09:31:49.154Z,-21401.75
2019-03-25T09:34:17.442Z,-21423.81
2019-03-25T09:36:45.726Z,-21443.04
2019-03-25T09:39:13.988Z,-21454.41
2019-03-25T09:41:42.274Z,-21454.55
2019-03-25T09:44:11.483Z,-21421.99
2019-03-25T09:46:39.749Z,-21417.63
2019-03-25T09:49:08.014Z,-21399.07
2019-03-25T09:51:36.289Z,-21430.27
2019-03-25T09:54:04.667Z,-21479.64
2019-03-25T09:56:32.943Z,-21484.12
2019-03-25T09:59:01.211Z,-21435.46
2019-03-25T10:01:29.488Z,-21436.02
2019-03-25T10:03:57.745Z,-21415.66
2019-03-25T10:06:26.031Z,-21424.37
2019-03-25T10:08:54.369Z,-21430.13
2019-03-25T10:11:22.692Z,-21452.16
2019-03-25T10:13:50.983Z,-21436.44
2019-03-25T10:16:19.245Z,-21441.92
2019-03-25T10:18:47.524Z,-21447.67
2019-03-25T10:21:15.811Z,-21455.66
2019-03-25T10:23:44.154Z,-21445.43
2019-03-25T10:26:12.442Z,-21484.39
2019-03-25T10:28:48.423Z,-21458.89
2019-03-25T10:31:10.796Z,-21506.23
2019-03-25T10:33:39.126Z,-21493.07
2019-03-25T10:36:07.715Z,-21492.24
2019-03-25T10:38:35.979Z,-21483.84
2019-03-25T10:41:04.259Z,-21471.51
2019-03-25T10:43:32.547Z,-21451.04
2019-03-25T10:46:00.803Z,-21466.75
2019-03-25T10:48:29.165Z,-21493.07
2019-03-25T10:50:57.417Z,-21485.23
2019-03-25T10:53:25.675Z,-21484.68
2019-03-25T10:55:53.939Z,-21479.49
2019-03-25T10:58:22.221Z,-21488.04
2019-03-25T11:00:50.545Z,-21480.47
2019-03-25T11:03:19.115Z,-21471.93
2019-03-25T11:05:47.559Z,-21468.71
2019-03-25T11:08:15.827Z,-21502.59
2019-03-25T11:10:44.152Z,-21495.18
2019-03-25T11:13:12.470Z,-21493.50
2019-03-25T11:15:40.755Z,-21453.56
2019-03-25T11:18:09.038Z,-21466.18
2019-03-25T11:20:37.323Z,-21461.55
2019-03-25T11:23:05.648Z,-21456.37
2019-03-25T11:25:33.900Z,-21495.04
2019-03-25T11:28:02.192Z,-21500.78
2019-03-25T11:30:49.432Z,-21446.97
2019-03-25T11:33:17.743Z,-21494.20
2019-03-25T11:35:46.089Z,-21487.76
2019-03-25T11:38:14.352Z,-21484.82
2019-03-25T11:40:42.722Z,-21503.99
2019-03-25T11:43:10.980Z,-21500.49
2019-03-25T11:45:39.242Z,-21486.91
2019-03-25T11:48:07.523Z,-21489.86
2019-03-25T11:50:35.767Z,-21451.88
2019-03-25T11:53:04.169Z,-21507.76
2019-03-25T11:55:32.480Z,-21444.87
2019-03-25T11:58:00.774Z,-21495.59
2019-03-25T12:00:29.042Z,-21485.23
2019-03-25T12:02:57.291Z,-21466.32
2019-03-25T12:05:25.583Z,-21469.13
2019-03-25T12:07:53.864Z,-21496.44
2019-03-25T12:10:22.120Z,-21474.45
2019-03-25T12:12:50.413Z,-21487.76
2019-03-25T12:15:18.700Z,-21471.37
2019-03-25T12:17:46.944Z,-21461.13
2019-03-25T12:20:15.260Z,-21459.88
2019-03-25T12:22:43.477Z,-21487.05
2019-03-25T12:25:11.931Z,-21496.15
2019-03-25T12:27:40.648Z,-21539.36
2019-03-25T12:30:10.277Z,-21529.72
2019-03-25T12:32:38.553Z,-21541.31
2019-03-25T12:35:08.266Z,-21612.25
2019-03-25T12:37:36.592Z,-21573.54
2019-03-25T12:40:07.852Z,-21569.08
2019-03-25T12:42:36.397Z,-21546.89
2019-03-25T12:45:06.698Z,-21521.05
2019-03-25T12:47:34.957Z,-21501.19
2019-03-25T12:50:04.139Z,-21526.36
2019-03-25T12:52:32.484Z,-21526.92
2019-03-25T12:55:02.412Z,-21517.28
2019-03-25T12:57:30.717Z,-21473.89
2019-03-25T12:59:59.086Z,-21427.46
2019-03-25T13:02:27.339Z,-21467.03
2019-03-25T13:04:55.606Z,-21511.13
2019-03-25T13:07:23.886Z,-21648.11
2019-03-25T13:09:52.156Z,-21621.85
2019-03-25T13:12:20.487Z,-21620.04
2019-03-25T13:14:48.749Z,-21646.43
2019-03-25T13:17:17.011Z,-21659.63
2019-03-25T13:19:45.291Z,-21732.59
2019-03-25T13:22:13.679Z,-21651.98
2019-03-25T13:24:42.039Z,-21577.71
2019-03-25T13:27:10.293Z,-21619.90
2019-03-25T13:29:38.571Z,-21644.36
2019-03-25T13:32:06.866Z,-21651.29
2019-03-25T13:34:35.140Z,-21565.87
2019-03-25T13:37:03.412Z,-21543.96
2019-03-25T13:39:31.671Z,-21464.78
2019-03-25T13:42:00.037Z,-21446.70
2019-03-25T13:44:28.307Z,-21451.60
2019-03-25T13:46:56.575Z,-21427.18
2019-03-25T13:49:24.839Z,-21416.78
2019-03-25T13:51:53.122Z,-21433.22
2019-03-25T13:54:21.445Z,-21453.70
2019-03-25T13:56:49.729Z,-21470.11
2019-03-25T13:59:18.013Z,-21459.59
2019-03-25T14:01:46.351Z,-21476.55
2019-03-25T14:04:14.643Z,-21468.15
2019-03-25T14:06:42.919Z,-21463.94
2019-03-25T14:09:11.257Z,-21541.31
2019-03-25T14:11:39.539Z,-21553.73
2019-03-25T14:14:07.880Z,-21524.96
2019-03-25T14:16:36.175Z,-21538.10
2019-03-25T14:19:06.232Z,-21509.87
2019-03-25T14:21:34.509Z,-21538.37
2019-03-25T14:24:02.870Z,-21479.21
2019-03-25T14:26:31.123Z,-21485.51
2019-03-25T14:28:59.403Z,-21444.87
2019-03-25T14:31:27.712Z,-21480.20
2019-03-25T14:33:55.934Z,-21480.62
2019-03-25T14:36:24.190Z,-21496.57
2019-03-25T14:38:52.467Z,-21474.03
2019-03-25T14:41:20.743Z,-21483.27
2019-03-25T14:43:49.012Z,-21499.51
2019-03-25T14:46:17.290Z,-21552.62
2019-03-25T14:48:45.584Z,-21638.53
2019-03-25T14:51:13.875Z,-21642.27
2019-03-25T14:53:45.163Z,-21659.21
2019-03-25T14:56:12.155Z,-21653.38
2019-03-25T14:58:40.433Z,-21683.33
2019-03-25T15:01:08.725Z,-21664.48
2019-03-25T15:03:37.164Z,-21682.78
2019-03-25T15:06:05.496Z,-21742.81
2019-03-25T15:08:33.783Z,-21742.40
2019-03-25T15:11:02.115Z,-21668.64
2019-03-25T15:13:30.393Z,-21710.88
2019-03-25T15:15:58.655Z,-21742.54
2019-03-25T15:18:26.954Z,-21665.17
2019-03-25T15:20:55.301Z,-21596.24
2019-03-25T15:23:23.554Z,-21560.71
2019-03-25T15:25:51.822Z,-21504.97
2019-03-25T15:28:20.098Z,-21572.14
2019-03-25T15:30:48.366Z,-21541.73
2019-03-25T15:33:23.738Z,-21518.96
2019-03-25T15:35:51.997Z,-21461.98
2019-03-25T15:38:20.297Z,-21472.49
2019-03-25T15:40:48.567Z,-21488.04
2019-03-25T15:43:16.864Z,-21502.87
2019-03-25T15:45:45.139Z,-21514.76
2019-03-25T15:48:13.410Z,-21538.80
2019-03-25T15:50:41.681Z,-21500.36
2019-03-25T15:53:09.964Z,-21474.73
2019-03-25T15:55:38.246Z,-21499.24
2019-03-25T15:58:06.593Z,-21543.13
2019-03-25T16:00:34.932Z,-21561.41
2019-03-25T16:03:03.185Z,-21580.22
2019-03-25T16:05:31.460Z,-21596.24
2019-03-25T16:07:59.726Z,-21526.64
2019-03-25T16:10:28.000Z,-21507.62
2019-03-25T16:12:56.381Z,-21558.48
2019-03-25T16:15:43.133Z,-21539.64
2019-03-25T16:18:32.672Z,-21543.68
2019-03-25T16:21:00.953Z,-21531.54
2019-03-25T16:23:29.202Z,-21532.65
2019-03-25T16:25:57.475Z,-21501.47
2019-03-25T16:28:25.745Z,-21451.18
2019-03-25T16:30:58.574Z,-21485.10
2019-03-25T16:33:24.082Z,-21438.55
2019-03-25T16:35:52.352Z,-21435.32
2019-03-25T16:38:20.904Z,-21455.39
2019-03-25T16:40:49.122Z,-21441.36
2019-03-25T16:43:17.451Z,-21462.96
2019-03-25T16:45:45.747Z,-21471.65
2019-03-25T16:48:14.041Z,-21466.18
2019-03-25T16:50:42.308Z,-21455.39
2019-03-25T16:53:10.581Z,-21448.09
2019-03-25T16:55:38.920Z,-21447.53
2019-03-25T16:58:07.208Z,-21460.57
2019-03-25T17:00:35.470Z,-21456.65
2019-03-25T17:03:03.747Z,-21459.17
2019-03-25T17:05:32.013Z,-21467.30
2019-03-25T17:08:00.290Z,-21448.80
2019-03-25T17:10:28.649Z,-21481.73
2019-03-25T17:12:56.910Z,-21430.55
2019-03-25T17:15:25.193Z,-21447.67
2019-03-25T17:17:53.484Z,-21425.77
2019-03-25T17:20:21.747Z,-21426.06
2019-03-25T17:22:50.020Z,-21420.85
2019-03-25T17:25:18.408Z,-21457.21
2019-03-25T17:27:46.658Z,-21433.78
2019-03-25T17:30:16.271Z,-21443.60
2019-03-25T17:32:44.560Z,-21439.25
2019-03-25T17:35:12.903Z,-21428.59
2019-03-25T17:37:41.180Z,-21428.02
2019-03-25T17:40:09.733Z,-21440.66
2019-03-25T17:42:37.988Z,-21454.13
2019-03-25T17:45:07.525Z,-21466.47
2019-03-25T17:47:35.816Z,-21532.65
2019-03-25T17:50:06.210Z,-21477.81
2019-03-25T17:52:34.565Z,-21454.97
2019-03-25T17:55:04.057Z,-21473.19
2019-03-25T17:57:32.326Z,-21489.16
2019-03-25T18:00:00.698Z,-21503.29
2019-03-25T18:02:28.986Z,-21468.71
2019-03-25T18:04:57.255Z,-21447.25
2019-03-25T18:07:25.609Z,-21413.97
2019-03-25T18:09:54.023Z,-21408.63
2019-03-25T18:12:22.250Z,-21454.26
2019-03-25T18:14:50.548Z,-21456.51
2019-03-25T18:17:18.829Z,-21405.82
2019-03-25T18:19:47.139Z,-21408.91
2019-03-25T18:22:15.391Z,-21528.32
2019-03-25T18:24:43.697Z,-21518.40
2019-03-25T18:27:11.915Z,-21501.19
2019-03-25T18:29:40.189Z,-21450.20
2019-03-25T18:32:08.525Z,-21484.39
2019-03-25T18:34:36.802Z,-21490.56
2019-03-25T18:37:05.156Z,-21488.88
2019-03-25T18:39:33.439Z,-21522.45
2019-03-25T18:42:03.837Z,-21514.06
2019-03-25T18:44:32.099Z,-21536.14
2019-03-25T18:47:03.393Z,-21489.44
2019-03-25T18:49:31.668Z,-21486.64
2019-03-25T18:51:59.942Z,-21517.56
2019-03-25T18:54:28.235Z,-21513.22
2019-03-25T18:56:56.550Z,-21495.04
2019-03-25T18:59:24.871Z,-21501.05
2019-03-25T19:01:54.720Z,-21455.81
2019-03-25T19:04:23.272Z,-21460.02
2019-03-25T19:06:51.627Z,-21493.64
2019-03-25T19:09:19.898Z,-21467.30
2019-03-25T19:11:48.170Z,-21447.67
2019-03-25T19:14:16.442Z,-21452.72
2019-03-25T19:16:44.703Z,-21461.55
2019-03-25T19:19:13.006Z,-21487.34
2019-03-25T19:21:41.306Z,-21482.58
2019-03-25T19:24:09.593Z,-21512.11
2019-03-25T19:26:37.862Z,-21506.93
2019-03-25T19:29:06.134Z,-21490.42
2019-03-25T19:31:34.422Z,-21484.53
2019-03-25T19:34:02.694Z,-21468.01
2019-03-25T19:36:30.967Z,-21512.11
2019-03-25T19:38:59.388Z,-21512.66
2019-03-25T19:41:32.488Z,-21550.39
2019-03-25T19:43:58.864Z,-21543.27
2019-03-25T19:46:27.134Z,-21556.80
2019-03-25T19:48:55.425Z,-21552.34
2019-03-25T19:51:23.693Z,-21448.52
2019-03-25T19:53:51.944Z,-21422.82
2019-03-25T19:56:20.240Z,-21506.65
2019-03-25T19:58:48.505Z,-21512.11
2019-03-25T20:01:16.805Z,-21560.43
2019-03-25T20:03:45.062Z,-21551.64
2019-03-25T20:06:25.813Z,-21504.97
2019-03-25T20:08:45.680Z,-21475.29
2019-03-25T20:11:13.957Z,-21443.74
2019-03-25T20:13:42.219Z,-21487.90
2019-03-25T20:16:10.519Z,-21493.50
2019-03-25T20:18:38.826Z,-21499.24
2019-03-25T20:21:07.254Z,-21519.94
2019-03-25T20:23:35.600Z,-21538.80
2019-03-25T20:26:03.875Z,-21542.43
2019-03-25T20:28:32.127Z,-21539.08
2019-03-25T20:31:00.401Z,-21536.42
2019-03-25T20:33:28.780Z,-21547.59
2019-03-25T20:35:57.106Z,-21531.54
2019-03-25T20:38:25.361Z,-21516.30
2019-03-25T20:40:53.697Z,-21495.32
2019-03-25T20:43:22.146Z,-21478.93
2019-03-25T20:45:50.475Z,-21494.76
2019-03-25T20:48:18.739Z,-21491.40
2019-03-25T20:50:47.081Z,-21464.36
2019-03-25T20:53:15.476Z,-21486.77
2019-03-25T20:55:43.780Z,-21492.52
2019-03-25T20:58:12.063Z,-21476.83
2019-03-25T21:00:51.380Z,-21503.43
2019-03-25T21:03:20.134Z,-21552.90
2019-03-25T21:05:48.455Z,-21506.79
2019-03-25T21:08:16.708Z,-21542.00
2019-03-25T21:10:45.340Z,-21568.66
2019-03-25T21:13:13.613Z,-21556.80
2019-03-25T21:15:41.933Z,-21535.44
2019-03-25T21:18:10.249Z,-21485.51
2019-03-25T21:20:41.357Z,-21527.20
2019-03-25T21:23:09.734Z,-21506.51
2019-03-25T21:25:37.964Z,-21479.49
2019-03-25T21:28:06.246Z,-21487.90
2019-03-25T21:30:47.076Z,-21490.28
2019-03-25T21:33:04.529Z,-21503.01
2019-03-25T21:35:32.786Z,-21514.20
2019-03-25T21:38:01.263Z,-21499.09
2019-03-25T21:40:29.655Z,-21525.80
2019-03-25T21:42:57.872Z,-21511.27
2019-03-25T21:45:26.175Z,-21509.87
2019-03-25T21:47:54.425Z,-21572.29
2019-03-25T21:50:22.692Z,-21528.60
2019-03-25T21:52:50.966Z,-21526.22
2019-03-25T21:55:19.288Z,-21573.40
2019-03-25T21:57:47.661Z,-21580.78
2019-03-25T22:00:16.053Z,-21547.32
2019-03-25T22:02:44.334Z,-21590.26
2019-03-25T22:05:12.619Z,-21562.10
2019-03-25T22:07:40.908Z,-21540.47
2019-03-25T22:10:09.278Z,-21546.20
2019-03-25T22:12:37.555Z,-21562.38
2019-03-25T22:15:09.181Z,-21560.43
2019-03-25T22:17:38.315Z,-21527.62
2019-03-25T22:20:10.930Z,-21519.09
2019-03-25T22:22:40.828Z,-21542.98
2019-03-25T22:25:09.279Z,-21534.05
2019-03-25T22:27:37.651Z,-21546.20
2019-03-25T22:30:07.359Z,-21548.01
2019-03-25T22:32:35.643Z,-21557.50
2019-03-25T22:35:05.954Z,-21534.61
2019-03-25T22:37:34.229Z,-21548.57
2019-03-25T22:40:02.586Z,-21478.79
2019-03-25T22:42:31.105Z,-21469.97
2019-03-25T22:44:59.404Z,-21485.51
2019-03-25T22:47:27.724Z,-21471.65
2019-03-25T22:49:55.970Z,-21483.55
2019-03-25T22:52:24.898Z,-21476.83
2019-03-25T22:54:53.199Z,-21461.70
2019-03-25T22:57:21.501Z,-21456.09
2019-03-25T22:59:49.791Z,-21460.57
2019-03-25T23:02:18.094Z,-21457.49
2019-03-25T23:04:46.517Z,-21456.93
2019-03-25T23:07:14.796Z,-21463.23
2019-03-25T23:09:43.070Z,-21415.52
2019-03-25T23:12:11.345Z,-21411.87
2019-03-25T23:14:39.843Z,-21417.48
2019-03-25T23:17:08.095Z,-21412.43
2019-03-25T23:19:38.612Z,-21400.48
2019-03-25T23:22:06.664Z,-21419.17
2019-03-25T23:24:35.372Z,-21414.82
2019-03-25T23:27:04.060Z,-21433.64
2019-03-25T23:29:32.438Z,-21422.82
2019-03-25T23:32:00.950Z,-21430.55
2019-03-25T23:34:29.362Z,-21429.29
2019-03-25T23:36:57.945Z,-21444.59
2019-03-25T23:39:26.238Z,-21439.68
2019-03-25T23:41:54.542Z,-21423.53
2019-03-25T23:44:22.984Z,-21424.37
2019-03-25T23:46:51.303Z,-21452.86
2019-03-25T23:49:20.443Z,-21450.90
2019-03-25T23:51:48.714Z,-21429.29
2019-03-25T23:54:16.976Z,-21404.55
2019-03-25T23:56:45.386Z,-21414.82
2019-03-25T23:59:13.658Z,-21407.09
